sensor_id;sensor_type;location;lat;lon;timestamp;P1;durP1;ratioP1;P2;durP2;ratioP2
58017;SDS011;43810;50.860;19.226;2022-10-16T00:00:52;15.00;;;9.20;;
58017;SDS011;43810;50.860;19.226;2022-10-16T00:03:32;18.85;;;9.77;;
58017;SDS011;43810;50.860;19.226;2022-10-16T00:05:58;16.55;;;9.77;;
58017;SDS011;43810;50.860;19.226;2022-10-16T00:08:25;15.63;;;8.85;;
58017;SDS011;43810;50.860;19.226;2022-10-16T00:10:51;14.80;;;9.63;;
58017;SDS011;43810;50.860;19.226;2022-10-16T00:13:17;15.30;;;8.98;;
58017;SDS011;43810;50.860;19.226;2022-10-16T00:15:44;14.05;;;8.57;;
58017;SDS011;43810;50.860;19.226;2022-10-16T00:18:11;17.10;;;9.40;;
58017;SDS011;43810;50.860;19.226;2022-10-16T00:20:39;16.48;;;8.95;;
58017;SDS011;43810;50.860;19.226;2022-10-16T00:23:05;14.38;;;8.77;;
58017;SDS011;43810;50.860;19.226;2022-10-16T00:25:31;13.88;;;8.82;;
58017;SDS011;43810;50.860;19.226;2022-10-16T00:27:59;12.90;;;8.63;;
58017;SDS011;43810;50.860;19.226;2022-10-16T00:30:25;12.73;;;8.13;;
58017;SDS011;43810;50.860;19.226;2022-10-16T00:32:53;13.13;;;8.20;;
58017;SDS011;43810;50.860;19.226;2022-10-16T00:35:19;14.68;;;8.73;;
58017;SDS011;43810;50.860;19.226;2022-10-16T00:37:45;15.85;;;9.27;;
58017;SDS011;43810;50.860;19.226;2022-10-16T00:40:10;15.50;;;9.32;;
58017;SDS011;43810;50.860;19.226;2022-10-16T00:42:36;15.70;;;8.82;;
58017;SDS011;43810;50.860;19.226;2022-10-16T00:45:02;16.55;;;9.60;;
58017;SDS011;43810;50.860;19.226;2022-10-16T00:47:30;14.50;;;9.48;;
58017;SDS011;43810;50.860;19.226;2022-10-16T00:50:09;15.47;;;8.97;;
58017;SDS011;43810;50.860;19.226;2022-10-16T00:52:43;13.48;;;8.98;;
58017;SDS011;43810;50.860;19.226;2022-10-16T00:55:11;19.15;;;9.07;;
58017;SDS011;43810;50.860;19.226;2022-10-16T00:57:38;15.35;;;9.27;;
58017;SDS011;43810;50.860;19.226;2022-10-16T01:00:06;16.60;;;9.50;;
58017;SDS011;43810;50.860;19.226;2022-10-16T01:02:33;15.88;;;8.75;;
58017;SDS011;43810;50.860;19.226;2022-10-16T01:04:59;14.75;;;9.00;;
58017;SDS011;43810;50.860;19.226;2022-10-16T01:15:07;14.15;;;9.38;;
58017;SDS011;43810;50.860;19.226;2022-10-16T01:20:32;16.08;;;9.38;;
58017;SDS011;43810;50.860;19.226;2022-10-16T01:23:28;17.17;;;9.10;;
58017;SDS011;43810;50.860;19.226;2022-10-16T01:31:33;14.85;;;9.63;;
58017;SDS011;43810;50.860;19.226;2022-10-16T01:34:10;14.45;;;8.93;;
58017;SDS011;43810;50.860;19.226;2022-10-16T01:36:45;16.88;;;8.90;;
58017;SDS011;43810;50.860;19.226;2022-10-16T01:39:16;15.05;;;9.48;;
58017;SDS011;43810;50.860;19.226;2022-10-16T01:41:48;15.63;;;9.15;;
58017;SDS011;43810;50.860;19.226;2022-10-16T01:44:20;13.17;;;8.23;;
58017;SDS011;43810;50.860;19.226;2022-10-16T01:46:51;14.38;;;8.88;;
58017;SDS011;43810;50.860;19.226;2022-10-16T01:49:20;16.10;;;8.70;;
58017;SDS011;43810;50.860;19.226;2022-10-16T01:51:49;18.42;;;9.70;;
58017;SDS011;43810;50.860;19.226;2022-10-16T01:54:19;16.10;;;9.55;;
58017;SDS011;43810;50.860;19.226;2022-10-16T01:56:47;15.27;;;9.30;;
58017;SDS011;43810;50.860;19.226;2022-10-16T01:59:17;15.48;;;8.88;;
58017;SDS011;43810;50.860;19.226;2022-10-16T02:01:46;16.58;;;8.77;;
58017;SDS011;43810;50.860;19.226;2022-10-16T02:04:22;18.45;;;9.35;;
58017;SDS011;43810;50.860;19.226;2022-10-16T02:06:53;17.60;;;9.52;;
58017;SDS011;43810;50.860;19.226;2022-10-16T02:09:19;15.57;;;9.02;;
58017;SDS011;43810;50.860;19.226;2022-10-16T02:11:45;16.92;;;9.40;;
58017;SDS011;43810;50.860;19.226;2022-10-16T02:14:11;18.00;;;9.77;;
58017;SDS011;43810;50.860;19.226;2022-10-16T02:16:44;17.02;;;8.70;;
58017;SDS011;43810;50.860;19.226;2022-10-16T02:19:15;17.23;;;9.85;;
58017;SDS011;43810;50.860;19.226;2022-10-16T02:21:47;14.95;;;9.32;;
58017;SDS011;43810;50.860;19.226;2022-10-16T02:24:34;15.60;;;9.68;;
58017;SDS011;43810;50.860;19.226;2022-10-16T02:27:13;19.73;;;9.43;;
58017;SDS011;43810;50.860;19.226;2022-10-16T02:29:49;17.30;;;9.32;;
58017;SDS011;43810;50.860;19.226;2022-10-16T02:32:24;15.13;;;9.63;;
58017;SDS011;43810;50.860;19.226;2022-10-16T02:34:56;16.77;;;9.52;;
58017;SDS011;43810;50.860;19.226;2022-10-16T02:37:22;16.58;;;9.82;;
58017;SDS011;43810;50.860;19.226;2022-10-16T02:39:50;13.73;;;10.05;;
58017;SDS011;43810;50.860;19.226;2022-10-16T02:42:17;15.15;;;9.30;;
58017;SDS011;43810;50.860;19.226;2022-10-16T02:44:44;18.88;;;9.90;;
58017;SDS011;43810;50.860;19.226;2022-10-16T02:47:09;13.40;;;9.13;;
58017;SDS011;43810;50.860;19.226;2022-10-16T02:49:35;17.70;;;10.65;;
58017;SDS011;43810;50.860;19.226;2022-10-16T02:52:00;18.27;;;10.68;;
58017;SDS011;43810;50.860;19.226;2022-10-16T02:54:26;15.05;;;9.52;;
58017;SDS011;43810;50.860;19.226;2022-10-16T02:56:52;15.07;;;9.65;;
58017;SDS011;43810;50.860;19.226;2022-10-16T02:59:17;17.55;;;9.32;;
58017;SDS011;43810;50.860;19.226;2022-10-16T03:01:43;15.57;;;9.75;;
58017;SDS011;43810;50.860;19.226;2022-10-16T03:04:09;16.73;;;10.15;;
58017;SDS011;43810;50.860;19.226;2022-10-16T03:06:35;18.10;;;9.75;;
58017;SDS011;43810;50.860;19.226;2022-10-16T03:09:01;13.40;;;8.85;;
58017;SDS011;43810;50.860;19.226;2022-10-16T03:11:26;20.90;;;9.93;;
58017;SDS011;43810;50.860;19.226;2022-10-16T03:13:53;16.73;;;9.45;;
58017;SDS011;43810;50.860;19.226;2022-10-16T03:16:19;13.98;;;10.02;;
58017;SDS011;43810;50.860;19.226;2022-10-16T03:18:47;13.40;;;9.43;;
58017;SDS011;43810;50.860;19.226;2022-10-16T03:21:14;19.83;;;9.15;;
58017;SDS011;43810;50.860;19.226;2022-10-16T03:23:41;19.15;;;9.30;;
58017;SDS011;43810;50.860;19.226;2022-10-16T03:26:06;19.08;;;9.57;;
58017;SDS011;43810;50.860;19.226;2022-10-16T03:28:32;23.67;;;10.48;;
58017;SDS011;43810;50.860;19.226;2022-10-16T03:30:58;20.20;;;10.27;;
58017;SDS011;43810;50.860;19.226;2022-10-16T03:33:23;20.67;;;9.52;;
58017;SDS011;43810;50.860;19.226;2022-10-16T03:35:52;20.67;;;10.93;;
58017;SDS011;43810;50.860;19.226;2022-10-16T03:38:19;21.80;;;10.65;;
58017;SDS011;43810;50.860;19.226;2022-10-16T03:40:45;21.08;;;12.10;;
58017;SDS011;43810;50.860;19.226;2022-10-16T03:43:11;21.27;;;11.70;;
58017;SDS011;43810;50.860;19.226;2022-10-16T03:45:37;21.70;;;11.90;;
58017;SDS011;43810;50.860;19.226;2022-10-16T03:48:03;21.45;;;11.98;;
58017;SDS011;43810;50.860;19.226;2022-10-16T03:50:29;23.33;;;11.73;;
58017;SDS011;43810;50.860;19.226;2022-10-16T03:52:55;23.15;;;12.68;;
58017;SDS011;43810;50.860;19.226;2022-10-16T03:55:21;25.92;;;12.43;;
58017;SDS011;43810;50.860;19.226;2022-10-16T03:57:46;22.42;;;12.90;;
58017;SDS011;43810;50.860;19.226;2022-10-16T04:00:12;22.65;;;11.93;;
58017;SDS011;43810;50.860;19.226;2022-10-16T04:02:38;25.17;;;12.85;;
58017;SDS011;43810;50.860;19.226;2022-10-16T04:05:04;27.73;;;13.25;;
58017;SDS011;43810;50.860;19.226;2022-10-16T04:07:30;21.60;;;12.32;;
58017;SDS011;43810;50.860;19.226;2022-10-16T04:09:56;25.88;;;12.70;;
58017;SDS011;43810;50.860;19.226;2022-10-16T04:12:23;28.15;;;13.18;;
58017;SDS011;43810;50.860;19.226;2022-10-16T04:14:48;20.38;;;12.60;;
58017;SDS011;43810;50.860;19.226;2022-10-16T04:17:14;21.90;;;12.55;;
58017;SDS011;43810;50.860;19.226;2022-10-16T04:19:40;21.95;;;12.68;;
58017;SDS011;43810;50.860;19.226;2022-10-16T04:22:06;22.17;;;13.07;;
58017;SDS011;43810;50.860;19.226;2022-10-16T04:24:31;32.00;;;14.90;;
58017;SDS011;43810;50.860;19.226;2022-10-16T04:26:57;31.45;;;15.10;;
58017;SDS011;43810;50.860;19.226;2022-10-16T04:29:23;26.88;;;13.85;;
58017;SDS011;43810;50.860;19.226;2022-10-16T04:31:49;25.77;;;12.75;;
58017;SDS011;43810;50.860;19.226;2022-10-16T04:34:14;23.33;;;12.40;;
58017;SDS011;43810;50.860;19.226;2022-10-16T04:36:40;26.67;;;14.40;;
58017;SDS011;43810;50.860;19.226;2022-10-16T04:39:06;23.95;;;12.60;;
58017;SDS011;43810;50.860;19.226;2022-10-16T04:41:32;18.60;;;11.63;;
58017;SDS011;43810;50.860;19.226;2022-10-16T04:43:57;28.73;;;14.48;;
58017;SDS011;43810;50.860;19.226;2022-10-16T04:46:23;29.98;;;14.45;;
58017;SDS011;43810;50.860;19.226;2022-10-16T04:48:49;19.85;;;12.02;;
58017;SDS011;43810;50.860;19.226;2022-10-16T04:51:14;22.50;;;12.40;;
58017;SDS011;43810;50.860;19.226;2022-10-16T04:53:40;22.63;;;12.93;;
58017;SDS011;43810;50.860;19.226;2022-10-16T04:56:06;29.60;;;15.07;;
58017;SDS011;43810;50.860;19.226;2022-10-16T04:58:31;30.00;;;15.80;;
58017;SDS011;43810;50.860;19.226;2022-10-16T05:00:58;25.02;;;13.48;;
58017;SDS011;43810;50.860;19.226;2022-10-16T05:03:24;23.50;;;13.20;;
58017;SDS011;43810;50.860;19.226;2022-10-16T05:05:50;26.08;;;11.98;;
58017;SDS011;43810;50.860;19.226;2022-10-16T05:08:15;30.38;;;13.20;;
58017;SDS011;43810;50.860;19.226;2022-10-16T05:10:42;20.52;;;12.48;;
58017;SDS011;43810;50.860;19.226;2022-10-16T05:13:08;23.73;;;12.48;;
58017;SDS011;43810;50.860;19.226;2022-10-16T05:15:34;25.25;;;12.57;;
58017;SDS011;43810;50.860;19.226;2022-10-16T05:18:00;22.70;;;12.95;;
58017;SDS011;43810;50.860;19.226;2022-10-16T05:20:26;31.27;;;13.75;;
58017;SDS011;43810;50.860;19.226;2022-10-16T05:22:52;26.55;;;14.75;;
58017;SDS011;43810;50.860;19.226;2022-10-16T05:25:18;27.45;;;15.27;;
58017;SDS011;43810;50.860;19.226;2022-10-16T05:27:47;25.65;;;14.48;;
58017;SDS011;43810;50.860;19.226;2022-10-16T05:30:14;28.25;;;14.05;;
58017;SDS011;43810;50.860;19.226;2022-10-16T05:32:40;28.13;;;14.23;;
58017;SDS011;43810;50.860;19.226;2022-10-16T05:35:07;30.95;;;16.45;;
58017;SDS011;43810;50.860;19.226;2022-10-16T05:37:32;39.67;;;16.17;;
58017;SDS011;43810;50.860;19.226;2022-10-16T05:39:58;32.85;;;15.98;;
58017;SDS011;43810;50.860;19.226;2022-10-16T05:42:24;30.65;;;14.73;;
58017;SDS011;43810;50.860;19.226;2022-10-16T05:44:49;29.83;;;15.45;;
58017;SDS011;43810;50.860;19.226;2022-10-16T05:47:15;34.33;;;16.63;;
58017;SDS011;43810;50.860;19.226;2022-10-16T05:49:41;32.90;;;16.02;;
58017;SDS011;43810;50.860;19.226;2022-10-16T05:52:07;25.70;;;14.63;;
58017;SDS011;43810;50.860;19.226;2022-10-16T05:54:33;25.92;;;13.55;;
58017;SDS011;43810;50.860;19.226;2022-10-16T05:56:58;23.88;;;14.02;;
58017;SDS011;43810;50.860;19.226;2022-10-16T05:59:24;35.45;;;15.90;;
58017;SDS011;43810;50.860;19.226;2022-10-16T06:01:49;30.08;;;14.40;;
58017;SDS011;43810;50.860;19.226;2022-10-16T06:04:15;24.83;;;13.02;;
58017;SDS011;43810;50.860;19.226;2022-10-16T06:06:41;22.92;;;12.75;;
58017;SDS011;43810;50.860;19.226;2022-10-16T06:09:07;26.58;;;13.23;;
58017;SDS011;43810;50.860;19.226;2022-10-16T06:11:32;22.25;;;12.43;;
58017;SDS011;43810;50.860;19.226;2022-10-16T06:13:59;22.00;;;12.48;;
58017;SDS011;43810;50.860;19.226;2022-10-16T06:16:32;22.80;;;12.48;;
58017;SDS011;43810;50.860;19.226;2022-10-16T06:19:00;33.45;;;15.50;;
58017;SDS011;43810;50.860;19.226;2022-10-16T06:21:26;23.27;;;12.88;;
58017;SDS011;43810;50.860;19.226;2022-10-16T06:23:54;23.70;;;11.93;;
58017;SDS011;43810;50.860;19.226;2022-10-16T06:26:22;24.05;;;13.25;;
58017;SDS011;43810;50.860;19.226;2022-10-16T06:28:50;31.77;;;14.63;;
58017;SDS011;43810;50.860;19.226;2022-10-16T06:31:16;26.92;;;13.73;;
58017;SDS011;43810;50.860;19.226;2022-10-16T06:33:42;20.65;;;11.77;;
58017;SDS011;43810;50.860;19.226;2022-10-16T06:38:36;23.15;;;13.13;;
58017;SDS011;43810;50.860;19.226;2022-10-16T06:41:02;25.40;;;12.75;;
58017;SDS011;43810;50.860;19.226;2022-10-16T06:43:28;20.75;;;11.95;;
58017;SDS011;43810;50.860;19.226;2022-10-16T06:45:57;21.55;;;11.90;;
58017;SDS011;43810;50.860;19.226;2022-10-16T06:48:25;24.77;;;13.02;;
58017;SDS011;43810;50.860;19.226;2022-10-16T06:51:01;29.02;;;12.75;;
58017;SDS011;43810;50.860;19.226;2022-10-16T06:53:32;21.58;;;11.95;;
58017;SDS011;43810;50.860;19.226;2022-10-16T06:56:08;17.77;;;12.32;;
58017;SDS011;43810;50.860;19.226;2022-10-16T06:58:40;25.02;;;11.95;;
58017;SDS011;43810;50.860;19.226;2022-10-16T07:01:07;20.48;;;11.90;;
58017;SDS011;43810;50.860;19.226;2022-10-16T07:03:33;24.50;;;13.60;;
58017;SDS011;43810;50.860;19.226;2022-10-16T07:06:01;20.23;;;11.90;;
58017;SDS011;43810;50.860;19.226;2022-10-16T07:08:35;20.27;;;12.15;;
58017;SDS011;43810;50.860;19.226;2022-10-16T07:11:03;28.23;;;12.50;;
58017;SDS011;43810;50.860;19.226;2022-10-16T07:13:34;26.02;;;12.80;;
58017;SDS011;43810;50.860;19.226;2022-10-16T07:16:07;25.77;;;13.30;;
58017;SDS011;43810;50.860;19.226;2022-10-16T07:18:35;27.10;;;12.50;;
58017;SDS011;43810;50.860;19.226;2022-10-16T07:21:05;29.90;;;14.18;;
58017;SDS011;43810;50.860;19.226;2022-10-16T07:23:33;31.42;;;14.27;;
58017;SDS011;43810;50.860;19.226;2022-10-16T07:25:59;26.80;;;13.93;;
58017;SDS011;43810;50.860;19.226;2022-10-16T07:28:25;24.02;;;11.43;;
58017;SDS011;43810;50.860;19.226;2022-10-16T07:30:51;20.20;;;12.00;;
58017;SDS011;43810;50.860;19.226;2022-10-16T07:33:17;28.13;;;13.63;;
58017;SDS011;43810;50.860;19.226;2022-10-16T07:35:50;23.27;;;12.23;;
58017;SDS011;43810;50.860;19.226;2022-10-16T07:38:19;21.08;;;11.13;;
58017;SDS011;43810;50.860;19.226;2022-10-16T07:40:45;15.68;;;9.07;;
58017;SDS011;43810;50.860;19.226;2022-10-16T07:43:12;24.95;;;10.98;;
58017;SDS011;43810;50.860;19.226;2022-10-16T07:45:38;23.08;;;11.98;;
58017;SDS011;43810;50.860;19.226;2022-10-16T07:48:13;18.85;;;10.52;;
58017;SDS011;43810;50.860;19.226;2022-10-16T07:50:39;25.10;;;10.73;;
58017;SDS011;43810;50.860;19.226;2022-10-16T07:53:07;18.73;;;10.70;;
58017;SDS011;43810;50.860;19.226;2022-10-16T07:55:33;16.30;;;10.00;;
58017;SDS011;43810;50.860;19.226;2022-10-16T07:57:59;21.20;;;10.10;;
58017;SDS011;43810;50.860;19.226;2022-10-16T08:00:24;14.80;;;9.20;;
58017;SDS011;43810;50.860;19.226;2022-10-16T08:02:50;16.77;;;9.07;;
58017;SDS011;43810;50.860;19.226;2022-10-16T08:05:16;16.55;;;8.73;;
58017;SDS011;43810;50.860;19.226;2022-10-16T08:07:42;15.90;;;9.15;;
58017;SDS011;43810;50.860;19.226;2022-10-16T08:10:11;14.60;;;8.55;;
58017;SDS011;43810;50.860;19.226;2022-10-16T08:12:42;15.98;;;8.88;;
58017;SDS011;43810;50.860;19.226;2022-10-16T08:15:07;14.35;;;9.45;;
58017;SDS011;43810;50.860;19.226;2022-10-16T08:17:34;15.75;;;9.48;;
58017;SDS011;43810;50.860;19.226;2022-10-16T08:19:59;16.33;;;9.40;;
58017;SDS011;43810;50.860;19.226;2022-10-16T08:22:25;15.52;;;9.43;;
58017;SDS011;43810;50.860;19.226;2022-10-16T08:24:51;16.70;;;9.63;;
58017;SDS011;43810;50.860;19.226;2022-10-16T08:27:16;19.52;;;9.85;;
58017;SDS011;43810;50.860;19.226;2022-10-16T08:29:42;14.32;;;9.10;;
58017;SDS011;43810;50.860;19.226;2022-10-16T08:32:08;14.30;;;8.90;;
58017;SDS011;43810;50.860;19.226;2022-10-16T08:34:33;17.60;;;9.80;;
58017;SDS011;43810;50.860;19.226;2022-10-16T08:36:59;14.27;;;8.80;;
58017;SDS011;43810;50.860;19.226;2022-10-16T08:39:25;14.57;;;9.35;;
58017;SDS011;43810;50.860;19.226;2022-10-16T08:47:51;14.60;;;7.83;;
58017;SDS011;43810;50.860;19.226;2022-10-16T08:50:26;13.15;;;7.30;;
58017;SDS011;43810;50.860;19.226;2022-10-16T08:52:53;12.75;;;8.10;;
58017;SDS011;43810;50.860;19.226;2022-10-16T08:55:31;14.25;;;8.93;;
58017;SDS011;43810;50.860;19.226;2022-10-16T08:58:09;17.80;;;8.55;;
58017;SDS011;43810;50.860;19.226;2022-10-16T09:00:37;17.30;;;8.77;;
58017;SDS011;43810;50.860;19.226;2022-10-16T09:03:07;12.50;;;7.75;;
58017;SDS011;43810;50.860;19.226;2022-10-16T09:11:34;9.32;;;7.25;;
58017;SDS011;43810;50.860;19.226;2022-10-16T09:22:29;16.80;;;8.18;;
58017;SDS011;43810;50.860;19.226;2022-10-16T09:24:59;9.63;;;7.45;;
58017;SDS011;43810;50.860;19.226;2022-10-16T09:27:33;11.93;;;8.48;;
58017;SDS011;43810;50.860;19.226;2022-10-16T09:30:13;13.20;;;7.78;;
58017;SDS011;43810;50.860;19.226;2022-10-16T09:32:41;11.52;;;7.50;;
58017;SDS011;43810;50.860;19.226;2022-10-16T09:35:14;9.80;;;7.00;;
58017;SDS011;43810;50.860;19.226;2022-10-16T09:37:43;14.88;;;8.05;;
58017;SDS011;43810;50.860;19.226;2022-10-16T09:40:24;13.25;;;7.70;;
58017;SDS011;43810;50.860;19.226;2022-10-16T09:42:54;10.63;;;6.45;;
58017;SDS011;43810;50.860;19.226;2022-10-16T09:45:32;10.98;;;7.35;;
58017;SDS011;43810;50.860;19.226;2022-10-16T09:47:57;10.05;;;6.38;;
58017;SDS011;43810;50.860;19.226;2022-10-16T09:50:27;15.55;;;7.40;;
58017;SDS011;43810;50.860;19.226;2022-10-16T09:53:12;11.80;;;6.90;;
58017;SDS011;43810;50.860;19.226;2022-10-16T09:55:48;11.55;;;6.55;;
58017;SDS011;43810;50.860;19.226;2022-10-16T09:58:17;8.50;;;6.63;;
58017;SDS011;43810;50.860;19.226;2022-10-16T10:00:50;7.88;;;6.05;;
58017;SDS011;43810;50.860;19.226;2022-10-16T10:03:37;8.48;;;5.40;;
58017;SDS011;43810;50.860;19.226;2022-10-16T10:06:22;7.07;;;5.55;;
58017;SDS011;43810;50.860;19.226;2022-10-16T10:08:58;8.82;;;5.95;;
58017;SDS011;43810;50.860;19.226;2022-10-16T10:11:43;8.25;;;6.25;;
58017;SDS011;43810;50.860;19.226;2022-10-16T10:14:29;10.63;;;6.55;;
58017;SDS011;43810;50.860;19.226;2022-10-16T10:19:36;12.38;;;7.47;;
58017;SDS011;43810;50.860;19.226;2022-10-16T10:32:45;13.07;;;7.28;;
58017;SDS011;43810;50.860;19.226;2022-10-16T10:35:36;12.85;;;8.02;;
58017;SDS011;43810;50.860;19.226;2022-10-16T10:43:35;12.00;;;6.85;;
58017;SDS011;43810;50.860;19.226;2022-10-16T10:46:15;12.57;;;6.72;;
58017;SDS011;43810;50.860;19.226;2022-10-16T11:01:54;11.23;;;6.30;;
58017;SDS011;43810;50.860;19.226;2022-10-16T11:07:26;9.20;;;6.00;;
58017;SDS011;43810;50.860;19.226;2022-10-16T11:09:56;12.15;;;5.97;;
58017;SDS011;43810;50.860;19.226;2022-10-16T11:12:34;10.43;;;5.57;;
58017;SDS011;43810;50.860;19.226;2022-10-16T11:15:15;7.80;;;5.35;;
58017;SDS011;43810;50.860;19.226;2022-10-16T11:17:57;8.73;;;5.72;;
58017;SDS011;43810;50.860;19.226;2022-10-16T11:20:54;18.00;;;7.07;;
58017;SDS011;43810;50.860;19.226;2022-10-16T11:23:30;7.45;;;5.75;;
58017;SDS011;43810;50.860;19.226;2022-10-16T11:26:05;10.68;;;6.18;;
58017;SDS011;43810;50.860;19.226;2022-10-16T11:28:47;10.77;;;5.93;;
58017;SDS011;43810;50.860;19.226;2022-10-16T11:31:18;9.45;;;6.30;;
58017;SDS011;43810;50.860;19.226;2022-10-16T11:34:34;8.07;;;5.70;;
58017;SDS011;43810;50.860;19.226;2022-10-16T11:37:08;8.95;;;6.68;;
58017;SDS011;43810;50.860;19.226;2022-10-16T11:39:38;11.52;;;6.68;;
58017;SDS011;43810;50.860;19.226;2022-10-16T11:42:10;9.05;;;6.53;;
58017;SDS011;43810;50.860;19.226;2022-10-16T11:55:22;8.48;;;6.22;;
58017;SDS011;43810;50.860;19.226;2022-10-16T11:57:52;10.05;;;6.75;;
58017;SDS011;43810;50.860;19.226;2022-10-16T12:00:31;12.13;;;6.63;;
58017;SDS011;43810;50.860;19.226;2022-10-16T12:08:23;7.95;;;5.35;;
58017;SDS011;43810;50.860;19.226;2022-10-16T12:10:49;10.00;;;6.10;;
58017;SDS011;43810;50.860;19.226;2022-10-16T12:13:29;8.40;;;6.25;;
58017;SDS011;43810;50.860;19.226;2022-10-16T12:18:48;10.93;;;5.90;;
58017;SDS011;43810;50.860;19.226;2022-10-16T12:21:15;9.25;;;5.93;;
58017;SDS011;43810;50.860;19.226;2022-10-16T12:23:51;9.27;;;5.70;;
58017;SDS011;43810;50.860;19.226;2022-10-16T12:26:24;17.13;;;7.00;;
58017;SDS011;43810;50.860;19.226;2022-10-16T12:29:12;9.27;;;6.28;;
58017;SDS011;43810;50.860;19.226;2022-10-16T12:31:45;9.48;;;6.88;;
58017;SDS011;43810;50.860;19.226;2022-10-16T12:34:55;9.88;;;6.40;;
58017;SDS011;43810;50.860;19.226;2022-10-16T12:37:24;9.45;;;6.30;;
58017;SDS011;43810;50.860;19.226;2022-10-16T12:39:56;8.57;;;6.30;;
58017;SDS011;43810;50.860;19.226;2022-10-16T12:44:52;12.20;;;6.50;;
58017;SDS011;43810;50.860;19.226;2022-10-16T12:47:20;11.98;;;6.43;;
58017;SDS011;43810;50.860;19.226;2022-10-16T12:53:03;9.80;;;6.25;;
58017;SDS011;43810;50.860;19.226;2022-10-16T12:55:47;9.45;;;6.15;;
58017;SDS011;43810;50.860;19.226;2022-10-16T13:01:18;11.68;;;6.88;;
58017;SDS011;43810;50.860;19.226;2022-10-16T13:07:46;9.38;;;6.45;;
58017;SDS011;43810;50.860;19.226;2022-10-16T13:18:33;9.75;;;6.47;;
58017;SDS011;43810;50.860;19.226;2022-10-16T13:21:16;8.57;;;6.93;;
58017;SDS011;43810;50.860;19.226;2022-10-16T13:28:58;10.05;;;7.30;;
58017;SDS011;43810;50.860;19.226;2022-10-16T13:31:26;9.57;;;6.75;;
58017;SDS011;43810;50.860;19.226;2022-10-16T13:33:58;11.98;;;7.90;;
58017;SDS011;43810;50.860;19.226;2022-10-16T13:36:26;13.07;;;6.75;;
58017;SDS011;43810;50.860;19.226;2022-10-16T13:39:22;9.35;;;7.07;;
58017;SDS011;43810;50.860;19.226;2022-10-16T13:44:49;11.88;;;6.63;;
58017;SDS011;43810;50.860;19.226;2022-10-16T13:49:44;11.93;;;6.68;;
58017;SDS011;43810;50.860;19.226;2022-10-16T13:52:19;9.85;;;6.53;;
58017;SDS011;43810;50.860;19.226;2022-10-16T13:54:46;10.10;;;6.20;;
58017;SDS011;43810;50.860;19.226;2022-10-16T13:57:15;9.48;;;6.68;;
58017;SDS011;43810;50.860;19.226;2022-10-16T13:59:42;8.57;;;6.00;;
58017;SDS011;43810;50.860;19.226;2022-10-16T14:02:22;9.70;;;6.45;;
58017;SDS011;43810;50.860;19.226;2022-10-16T14:04:52;12.32;;;6.50;;
58017;SDS011;43810;50.860;19.226;2022-10-16T14:07:26;8.80;;;6.80;;
58017;SDS011;43810;50.860;19.226;2022-10-16T14:09:54;9.55;;;7.15;;
58017;SDS011;43810;50.860;19.226;2022-10-16T14:12:21;9.95;;;6.95;;
58017;SDS011;43810;50.860;19.226;2022-10-16T14:14:49;13.25;;;7.53;;
58017;SDS011;43810;50.860;19.226;2022-10-16T14:17:24;11.23;;;7.10;;
58017;SDS011;43810;50.860;19.226;2022-10-16T14:19:53;10.40;;;7.03;;
58017;SDS011;43810;50.860;19.226;2022-10-16T14:24:55;11.30;;;7.20;;
58017;SDS011;43810;50.860;19.226;2022-10-16T14:27:26;13.70;;;6.97;;
58017;SDS011;43810;50.860;19.226;2022-10-16T14:32:52;13.27;;;6.65;;
58017;SDS011;43810;50.860;19.226;2022-10-16T14:35:24;9.30;;;6.82;;
58017;SDS011;43810;50.860;19.226;2022-10-16T14:37:53;11.45;;;6.50;;
58017;SDS011;43810;50.860;19.226;2022-10-16T14:40:21;11.70;;;7.50;;
58017;SDS011;43810;50.860;19.226;2022-10-16T14:42:49;10.02;;;6.30;;
58017;SDS011;43810;50.860;19.226;2022-10-16T14:45:26;11.85;;;7.72;;
58017;SDS011;43810;50.860;19.226;2022-10-16T14:47:55;13.90;;;6.43;;
58017;SDS011;43810;50.860;19.226;2022-10-16T14:50:24;11.77;;;6.85;;
58017;SDS011;43810;50.860;19.226;2022-10-16T14:52:50;11.15;;;7.15;;
58017;SDS011;43810;50.860;19.226;2022-10-16T14:55:16;10.75;;;6.97;;
58017;SDS011;43810;50.860;19.226;2022-10-16T14:57:42;10.20;;;6.95;;
58017;SDS011;43810;50.860;19.226;2022-10-16T15:00:13;11.80;;;7.07;;
58017;SDS011;43810;50.860;19.226;2022-10-16T15:02:40;19.27;;;8.07;;
58017;SDS011;43810;50.860;19.226;2022-10-16T15:05:11;10.27;;;6.80;;
58017;SDS011;43810;50.860;19.226;2022-10-16T15:07:40;10.40;;;7.13;;
58017;SDS011;43810;50.860;19.226;2022-10-16T15:10:06;8.98;;;6.90;;
58017;SDS011;43810;50.860;19.226;2022-10-16T15:12:32;12.95;;;8.48;;
58017;SDS011;43810;50.860;19.226;2022-10-16T15:14:58;14.60;;;8.00;;
58017;SDS011;43810;50.860;19.226;2022-10-16T15:17:23;9.13;;;6.75;;
58017;SDS011;43810;50.860;19.226;2022-10-16T15:19:49;14.57;;;7.35;;
58017;SDS011;43810;50.860;19.226;2022-10-16T15:22:16;12.75;;;8.02;;
58017;SDS011;43810;50.860;19.226;2022-10-16T15:24:42;12.90;;;8.40;;
58017;SDS011;43810;50.860;19.226;2022-10-16T15:27:08;12.23;;;8.00;;
58017;SDS011;43810;50.860;19.226;2022-10-16T15:29:37;13.18;;;7.30;;
58017;SDS011;43810;50.860;19.226;2022-10-16T15:32:02;12.57;;;8.00;;
58017;SDS011;43810;50.860;19.226;2022-10-16T15:34:28;24.23;;;11.02;;
58017;SDS011;43810;50.860;19.226;2022-10-16T15:36:54;13.35;;;8.50;;
58017;SDS011;43810;50.860;19.226;2022-10-16T15:39:22;12.90;;;8.35;;
58017;SDS011;43810;50.860;19.226;2022-10-16T15:41:47;13.95;;;8.75;;
58017;SDS011;43810;50.860;19.226;2022-10-16T15:44:16;15.45;;;8.45;;
58017;SDS011;43810;50.860;19.226;2022-10-16T15:46:42;14.40;;;8.07;;
58017;SDS011;43810;50.860;19.226;2022-10-16T15:49:08;13.43;;;7.97;;
58017;SDS011;43810;50.860;19.226;2022-10-16T15:51:37;13.65;;;7.82;;
58017;SDS011;43810;50.860;19.226;2022-10-16T15:54:05;13.00;;;8.05;;
58017;SDS011;43810;50.860;19.226;2022-10-16T15:56:31;14.75;;;8.40;;
58017;SDS011;43810;50.860;19.226;2022-10-16T15:58:59;18.02;;;9.02;;
58017;SDS011;43810;50.860;19.226;2022-10-16T16:01:26;14.82;;;8.88;;
58017;SDS011;43810;50.860;19.226;2022-10-16T16:03:52;17.38;;;9.25;;
58017;SDS011;43810;50.860;19.226;2022-10-16T16:06:19;12.43;;;8.15;;
58017;SDS011;43810;50.860;19.226;2022-10-16T16:08:45;17.98;;;8.93;;
58017;SDS011;43810;50.860;19.226;2022-10-16T16:11:14;13.27;;;8.23;;
58017;SDS011;43810;50.860;19.226;2022-10-16T16:13:41;14.80;;;8.70;;
58017;SDS011;43810;50.860;19.226;2022-10-16T16:16:08;14.05;;;9.43;;
58017;SDS011;43810;50.860;19.226;2022-10-16T16:18:35;18.23;;;10.13;;
58017;SDS011;43810;50.860;19.226;2022-10-16T16:21:01;16.05;;;9.25;;
58017;SDS011;43810;50.860;19.226;2022-10-16T16:23:28;13.65;;;9.10;;
58017;SDS011;43810;50.860;19.226;2022-10-16T16:28:38;18.35;;;9.73;;
58017;SDS011;43810;50.860;19.226;2022-10-16T16:31:05;16.48;;;9.82;;
58017;SDS011;43810;50.860;19.226;2022-10-16T16:33:31;18.25;;;10.63;;
58017;SDS011;43810;50.860;19.226;2022-10-16T16:35:58;18.10;;;9.88;;
58017;SDS011;43810;50.860;19.226;2022-10-16T16:38:25;15.20;;;9.50;;
58017;SDS011;43810;50.860;19.226;2022-10-16T16:40:51;18.52;;;10.02;;
58017;SDS011;43810;50.860;19.226;2022-10-16T16:43:17;17.98;;;9.55;;